ΕΜΥ, Εθνική Μετεωρολογική Υπηρεσία - Δελτία Καιρού, Προγνώσεις

ΑΕΡΟΝΑΥΤΙΛΙΑ

GREEK AIRPORTS CODES

LGSR 271950Z 24005KT 9999 FEW020TCU BKN025 13/11 Q1017 RMK BKN080=

EUROPEAN AIRPORTS CODES

EPWA 272100Z 17004KT 8000 NSC 01/M00 Q1010 NOSIG=